sensor_id;sensor_type;location;lat;lon;timestamp;pressure;altitude;pressure_sealevel;temperature;humidity
62725;BME280;49026;52.600;4.694;2024-01-30T00:00:07;102523.78;;;6.57;100.00
62725;BME280;49026;52.600;4.694;2024-01-30T00:02:33;102523.78;;;6.61;100.00
62725;BME280;49026;52.600;4.694;2024-01-30T00:04:58;102518.56;;;6.64;100.00
62725;BME280;49026;52.600;4.694;2024-01-30T00:07:31;102508.13;;;6.67;100.00
62725;BME280;49026;52.600;4.694;2024-01-30T00:09:59;102508.13;;;6.69;100.00
62725;BME280;49026;52.600;4.694;2024-01-30T00:12:24;102508.16;;;6.71;100.00
62725;BME280;49026;52.600;4.694;2024-01-30T00:14:50;102506.41;;;6.74;100.00
62725;BME280;49026;52.600;4.694;2024-01-30T00:17:15;102514.25;;;6.76;100.00
62725;BME280;49026;52.600;4.694;2024-01-30T00:19:40;102512.53;;;6.79;100.00
62725;BME280;49026;52.600;4.694;2024-01-30T00:22:08;102506.44;;;6.80;100.00
62725;BME280;49026;52.600;4.694;2024-01-30T00:24:34;102504.69;;;6.81;100.00
62725;BME280;49026;52.600;4.694;2024-01-30T00:26:59;102510.78;;;6.81;100.00
62725;BME280;49026;52.600;4.694;2024-01-30T00:29:24;102508.16;;;6.81;100.00
62725;BME280;49026;52.600;4.694;2024-01-30T00:31:54;102516.91;;;6.82;100.00
62725;BME280;49026;52.600;4.694;2024-01-30T00:34:19;102520.38;;;6.84;100.00
62725;BME280;49026;52.600;4.694;2024-01-30T00:36:47;102514.28;;;6.83;100.00
62725;BME280;49026;52.600;4.694;2024-01-30T00:39:13;102510.78;;;6.84;100.00
62725;BME280;49026;52.600;4.694;2024-01-30T00:41:41;102505.56;;;6.84;100.00
62725;BME280;49026;52.600;4.694;2024-01-30T00:44:06;102508.19;;;6.86;100.00
62725;BME280;49026;52.600;4.694;2024-01-30T00:46:31;102510.78;;;6.88;100.00
62725;BME280;49026;52.600;4.694;2024-01-30T00:48:59;102507.34;;;6.90;100.00
62725;BME280;49026;52.600;4.694;2024-01-30T00:51:24;102510.81;;;6.94;100.00
62725;BME280;49026;52.600;4.694;2024-01-30T00:53:52;102513.44;;;6.95;100.00
62725;BME280;49026;52.600;4.694;2024-01-30T00:56:17;102509.09;;;6.99;100.00
62725;BME280;49026;52.600;4.694;2024-01-30T00:58:45;102506.47;;;7.02;100.00
62725;BME280;49026;52.600;4.694;2024-01-30T01:01:10;102501.25;;;7.03;100.00
62725;BME280;49026;52.600;4.694;2024-01-30T01:03:37;102516.91;;;7.08;100.00
62725;BME280;49026;52.600;4.694;2024-01-30T01:06:03;102512.59;;;7.12;100.00
62725;BME280;49026;52.600;4.694;2024-01-30T01:08:28;102501.25;;;7.13;100.00
62725;BME280;49026;52.600;4.694;2024-01-30T01:10:53;102497.78;;;7.14;100.00
62725;BME280;49026;52.600;4.694;2024-01-30T01:13:19;102496.03;;;7.16;100.00
62725;BME280;49026;52.600;4.694;2024-01-30T01:15:44;102516.09;;;7.18;100.00
62725;BME280;49026;52.600;4.694;2024-01-30T01:18:09;102515.19;;;7.19;100.00
62725;BME280;49026;52.600;4.694;2024-01-30T01:20:34;102499.50;;;7.21;100.00
62725;BME280;49026;52.600;4.694;2024-01-30T01:23:00;102502.13;;;7.21;100.00
62725;BME280;49026;52.600;4.694;2024-01-30T01:25:25;102503.88;;;7.22;100.00
62725;BME280;49026;52.600;4.694;2024-01-30T01:27:50;102510.84;;;7.24;100.00
62725;BME280;49026;52.600;4.694;2024-01-30T01:30:18;102486.44;;;7.22;100.00
62725;BME280;49026;52.600;4.694;2024-01-30T01:32:50;102476.84;;;7.23;100.00
62725;BME280;49026;52.600;4.694;2024-01-30T01:35:23;102476.84;;;7.23;100.00
62725;BME280;49026;52.600;4.694;2024-01-30T01:37:53;102482.97;;;7.22;100.00
62725;BME280;49026;52.600;4.694;2024-01-30T01:40:26;102463.75;;;7.20;100.00
62725;BME280;49026;52.600;4.694;2024-01-30T01:42:51;102478.59;;;7.21;100.00
62725;BME280;49026;52.600;4.694;2024-01-30T01:45:20;102489.91;;;7.20;100.00
62725;BME280;49026;52.600;4.694;2024-01-30T01:47:47;102487.31;;;7.18;100.00
62725;BME280;49026;52.600;4.694;2024-01-30T01:50:13;102486.44;;;7.16;100.00
62725;BME280;49026;52.600;4.694;2024-01-30T01:52:43;102480.34;;;7.13;100.00
62725;BME280;49026;52.600;4.694;2024-01-30T01:55:12;102476.00;;;7.10;100.00
62725;BME280;49026;52.600;4.694;2024-01-30T01:57:38;102486.44;;;7.07;100.00
62725;BME280;49026;52.600;4.694;2024-01-30T02:00:03;102478.59;;;7.05;100.00
62725;BME280;49026;52.600;4.694;2024-01-30T02:02:35;102483.81;;;7.01;100.00
62725;BME280;49026;52.600;4.694;2024-01-30T02:05:03;102468.13;;;6.99;100.00
62725;BME280;49026;52.600;4.694;2024-01-30T02:07:29;102457.66;;;6.96;100.00
62725;BME280;49026;52.600;4.694;2024-01-30T02:09:55;102447.22;;;6.96;100.00
62725;BME280;49026;52.600;4.694;2024-01-30T02:12:20;102446.34;;;6.96;100.00
62725;BME280;49026;52.600;4.694;2024-01-30T02:14:49;102438.50;;;6.96;100.00
62725;BME280;49026;52.600;4.694;2024-01-30T02:17:15;102437.66;;;6.95;100.00
62725;BME280;49026;52.600;4.694;2024-01-30T02:19:41;102448.09;;;6.97;100.00
62725;BME280;49026;52.600;4.694;2024-01-30T02:22:07;102460.28;;;6.96;100.00
62725;BME280;49026;52.600;4.694;2024-01-30T02:24:32;102452.44;;;6.95;100.00
62725;BME280;49026;52.600;4.694;2024-01-30T02:26:58;102451.56;;;6.91;100.00
62725;BME280;49026;52.600;4.694;2024-01-30T02:29:25;102456.78;;;6.88;100.00
62725;BME280;49026;52.600;4.694;2024-01-30T02:31:51;102457.66;;;6.84;100.00
62725;BME280;49026;52.600;4.694;2024-01-30T02:34:17;102457.66;;;6.81;100.00
62725;BME280;49026;52.600;4.694;2024-01-30T02:36:44;102456.78;;;6.77;100.00
62725;BME280;49026;52.600;4.694;2024-01-30T02:39:09;102451.53;;;6.73;100.00
62725;BME280;49026;52.600;4.694;2024-01-30T02:41:35;102453.28;;;6.69;100.00
62725;BME280;49026;52.600;4.694;2024-01-30T02:44:01;102458.50;;;6.69;100.00
62725;BME280;49026;52.600;4.694;2024-01-30T02:46:26;102451.53;;;6.65;100.00
62725;BME280;49026;52.600;4.694;2024-01-30T02:48:56;102440.19;;;6.63;100.00
62725;BME280;49026;52.600;4.694;2024-01-30T02:51:22;102445.41;;;6.61;100.00
62725;BME280;49026;52.600;4.694;2024-01-30T02:53:47;102441.94;;;6.62;100.00
62725;BME280;49026;52.600;4.694;2024-01-30T02:56:12;102433.25;;;6.62;100.00
62725;BME280;49026;52.600;4.694;2024-01-30T02:58:39;102435.88;;;6.62;100.00
62725;BME280;49026;52.600;4.694;2024-01-30T03:01:04;102429.75;;;6.64;100.00
62725;BME280;49026;52.600;4.694;2024-01-30T03:03:30;102435.84;;;6.66;100.00
62725;BME280;49026;52.600;4.694;2024-01-30T03:05:55;102417.56;;;6.70;100.00
62725;BME280;49026;52.600;4.694;2024-01-30T03:08:20;102404.50;;;6.71;100.00
62725;BME280;49026;52.600;4.694;2024-01-30T03:10:48;102401.03;;;6.74;100.00
62725;BME280;49026;52.600;4.694;2024-01-30T03:13:13;102403.66;;;6.77;100.00
62725;BME280;49026;52.600;4.694;2024-01-30T03:15:41;102407.16;;;6.80;100.00
62725;BME280;49026;52.600;4.694;2024-01-30T03:18:06;102404.53;;;6.83;100.00
62725;BME280;49026;52.600;4.694;2024-01-30T03:20:32;102409.75;;;6.86;100.00
62725;BME280;49026;52.600;4.694;2024-01-30T03:22:59;102410.63;;;6.87;100.00
62725;BME280;49026;52.600;4.694;2024-01-30T03:25:25;102410.66;;;6.90;100.00
62725;BME280;49026;52.600;4.694;2024-01-30T03:27:50;102409.75;;;6.91;100.00
62725;BME280;49026;52.600;4.694;2024-01-30T03:30:16;102417.59;;;6.94;100.00
62725;BME280;49026;52.600;4.694;2024-01-30T03:32:41;102411.50;;;6.95;100.00
62725;BME280;49026;52.600;4.694;2024-01-30T03:35:07;102419.34;;;6.98;100.00
62725;BME280;49026;52.600;4.694;2024-01-30T03:37:32;102411.47;;;7.00;100.00
62725;BME280;49026;52.600;4.694;2024-01-30T03:40:01;102411.50;;;7.01;100.00
62725;BME280;49026;52.600;4.694;2024-01-30T03:42:26;102411.50;;;7.01;100.00
62725;BME280;49026;52.600;4.694;2024-01-30T03:44:51;102401.94;;;7.02;100.00
62725;BME280;49026;52.600;4.694;2024-01-30T03:47:19;102394.09;;;7.03;100.00
62725;BME280;49026;52.600;4.694;2024-01-30T03:49:47;102394.09;;;7.00;100.00
62725;BME280;49026;52.600;4.694;2024-01-30T03:52:12;102385.38;;;6.98;100.00
62725;BME280;49026;52.600;4.694;2024-01-30T03:54:37;102372.28;;;7.01;100.00
62725;BME280;49026;52.600;4.694;2024-01-30T03:57:03;102375.78;;;7.00;100.00
62725;BME280;49026;52.600;4.694;2024-01-30T03:59:28;102372.28;;;7.01;100.00
62725;BME280;49026;52.600;4.694;2024-01-30T04:01:56;102369.66;;;7.01;100.00
62725;BME280;49026;52.600;4.694;2024-01-30T04:04:21;102381.00;;;7.00;100.00
62725;BME280;49026;52.600;4.694;2024-01-30T04:06:47;102373.19;;;6.99;100.00
62725;BME280;49026;52.600;4.694;2024-01-30T04:09:13;102372.28;;;7.00;100.00
62725;BME280;49026;52.600;4.694;2024-01-30T04:11:39;102374.03;;;7.02;100.00
62725;BME280;49026;52.600;4.694;2024-01-30T04:14:06;102374.03;;;7.05;100.00
62725;BME280;49026;52.600;4.694;2024-01-30T04:16:32;102369.69;;;7.09;100.00
62725;BME280;49026;52.600;4.694;2024-01-30T04:18:59;102378.38;;;7.11;100.00
62725;BME280;49026;52.600;4.694;2024-01-30T04:21:25;102370.53;;;7.13;100.00
62725;BME280;49026;52.600;4.694;2024-01-30T04:23:53;102368.78;;;7.15;100.00
62725;BME280;49026;52.600;4.694;2024-01-30T04:26:18;102370.53;;;7.14;100.00
62725;BME280;49026;52.600;4.694;2024-01-30T04:28:44;102369.69;;;7.17;100.00
62725;BME280;49026;52.600;4.694;2024-01-30T04:31:13;102370.53;;;7.16;100.00
62725;BME280;49026;52.600;4.694;2024-01-30T04:33:38;102370.53;;;7.19;100.00
62725;BME280;49026;52.600;4.694;2024-01-30T04:36:07;102370.53;;;7.19;100.00
62725;BME280;49026;52.600;4.694;2024-01-30T04:38:34;102367.94;;;7.22;100.00
62725;BME280;49026;52.600;4.694;2024-01-30T04:40:59;102365.31;;;7.22;100.00
62725;BME280;49026;52.600;4.694;2024-01-30T04:43:24;102364.41;;;7.23;100.00
62725;BME280;49026;52.600;4.694;2024-01-30T04:45:51;102363.56;;;7.22;100.00
62725;BME280;49026;52.600;4.694;2024-01-30T04:48:19;102363.56;;;7.24;100.00
62725;BME280;49026;52.600;4.694;2024-01-30T04:50:44;102360.94;;;7.24;100.00
62725;BME280;49026;52.600;4.694;2024-01-30T04:53:12;102361.81;;;7.24;100.00
62725;BME280;49026;52.600;4.694;2024-01-30T04:55:37;102355.72;;;7.24;100.00
62725;BME280;49026;52.600;4.694;2024-01-30T04:58:02;102350.47;;;7.26;100.00
62725;BME280;49026;52.600;4.694;2024-01-30T05:00:28;102356.56;;;7.26;100.00
62725;BME280;49026;52.600;4.694;2024-01-30T05:02:55;102359.19;;;7.28;100.00
62725;BME280;49026;52.600;4.694;2024-01-30T05:05:23;102360.03;;;7.27;100.00
62725;BME280;49026;52.600;4.694;2024-01-30T05:07:48;102363.56;;;7.27;100.00
62725;BME280;49026;52.600;4.694;2024-01-30T05:10:14;102360.94;;;7.29;100.00
62725;BME280;49026;52.600;4.694;2024-01-30T05:12:39;102360.03;;;7.28;100.00
62725;BME280;49026;52.600;4.694;2024-01-30T05:15:05;102360.03;;;7.31;100.00
62725;BME280;49026;52.600;4.694;2024-01-30T05:17:31;102345.25;;;7.30;100.00
62725;BME280;49026;52.600;4.694;2024-01-30T05:19:56;102346.09;;;7.32;100.00
62725;BME280;49026;52.600;4.694;2024-01-30T05:22:25;102347.81;;;7.33;100.00
62725;BME280;49026;52.600;4.694;2024-01-30T05:24:50;102342.59;;;7.35;100.00
62725;BME280;49026;52.600;4.694;2024-01-30T05:27:15;102345.22;;;7.39;100.00
62725;BME280;49026;52.600;4.694;2024-01-30T05:29:43;102351.28;;;7.41;100.00
62725;BME280;49026;52.600;4.694;2024-01-30T05:32:08;102346.06;;;7.45;100.00
62725;BME280;49026;52.600;4.694;2024-01-30T05:34:36;102344.31;;;7.47;100.00
62725;BME280;49026;52.600;4.694;2024-01-30T05:37:01;102346.91;;;7.48;100.00
62725;BME280;49026;52.600;4.694;2024-01-30T05:39:27;102335.59;;;7.51;100.00
62725;BME280;49026;52.600;4.694;2024-01-30T05:41:52;102341.69;;;7.51;100.00
62725;BME280;49026;52.600;4.694;2024-01-30T05:44:17;102340.81;;;7.52;100.00
62725;BME280;49026;52.600;4.694;2024-01-30T05:46:42;102343.44;;;7.52;100.00
62725;BME280;49026;52.600;4.694;2024-01-30T05:49:08;102343.44;;;7.54;100.00
62725;BME280;49026;52.600;4.694;2024-01-30T05:51:33;102336.44;;;7.54;100.00
62725;BME280;49026;52.600;4.694;2024-01-30T05:53:58;102335.56;;;7.57;100.00
62725;BME280;49026;52.600;4.694;2024-01-30T05:56:24;102332.06;;;7.58;100.00
62725;BME280;49026;52.600;4.694;2024-01-30T05:58:49;102328.59;;;7.59;100.00
62725;BME280;49026;52.600;4.694;2024-01-30T06:01:18;102325.97;;;7.60;100.00
62725;BME280;49026;52.600;4.694;2024-01-30T06:03:43;102330.31;;;7.63;100.00
62725;BME280;49026;52.600;4.694;2024-01-30T06:06:09;102326.81;;;7.64;100.00
62725;BME280;49026;52.600;4.694;2024-01-30T06:08:34;102324.19;;;7.66;100.00
62725;BME280;49026;52.600;4.694;2024-01-30T06:10:59;102316.34;;;7.67;100.00
62725;BME280;49026;52.600;4.694;2024-01-30T06:13:25;102320.69;;;7.70;100.00
62725;BME280;49026;52.600;4.694;2024-01-30T06:15:54;102319.81;;;7.72;100.00
62725;BME280;49026;52.600;4.694;2024-01-30T06:18:19;102318.03;;;7.74;100.00
62725;BME280;49026;52.600;4.694;2024-01-30T06:20:45;102329.38;;;7.78;100.00
62725;BME280;49026;52.600;4.694;2024-01-30T06:23:13;102329.34;;;7.79;100.00
62725;BME280;49026;52.600;4.694;2024-01-30T06:25:39;102339.81;;;7.81;100.00
62725;BME280;49026;52.600;4.694;2024-01-30T06:28:05;102348.53;;;7.80;100.00
62725;BME280;49026;52.600;4.694;2024-01-30T06:30:30;102338.97;;;7.84;100.00
62725;BME280;49026;52.600;4.694;2024-01-30T06:32:55;102344.16;;;7.87;100.00
62725;BME280;49026;52.600;4.694;2024-01-30T06:35:21;102344.13;;;7.90;100.00
62725;BME280;49026;52.600;4.694;2024-01-30T06:37:46;102354.59;;;7.93;100.00
62725;BME280;49026;52.600;4.694;2024-01-30T06:40:14;102350.22;;;7.96;100.00
62725;BME280;49026;52.600;4.694;2024-01-30T06:42:40;102350.19;;;8.01;100.00
62725;BME280;49026;52.600;4.694;2024-01-30T06:45:05;102348.41;;;8.08;100.00
62725;BME280;49026;52.600;4.694;2024-01-30T06:47:31;102344.88;;;8.16;100.00
62725;BME280;49026;52.600;4.694;2024-01-30T06:49:56;102342.22;;;8.26;100.00
62725;BME280;49026;52.600;4.694;2024-01-30T06:52:24;102356.13;;;8.32;100.00
62725;BME280;49026;52.600;4.694;2024-01-30T06:54:49;102357.81;;;8.41;100.00
62725;BME280;49026;52.600;4.694;2024-01-30T06:57:14;102361.28;;;8.48;100.00
62725;BME280;49026;52.600;4.694;2024-01-30T06:59:42;102363.88;;;8.56;100.00
62725;BME280;49026;52.600;4.694;2024-01-30T07:02:12;102359.38;;;8.68;100.00
62725;BME280;49026;52.600;4.694;2024-01-30T07:04:37;102354.94;;;8.78;100.00
62725;BME280;49026;52.600;4.694;2024-01-30T07:07:04;102361.81;;;8.90;100.00
62725;BME280;49026;52.600;4.694;2024-01-30T07:09:30;102365.22;;;9.03;100.00
62725;BME280;49026;52.600;4.694;2024-01-30T07:11:59;102372.06;;;9.19;100.00
62725;BME280;49026;52.600;4.694;2024-01-30T07:14:25;102360.50;;;9.37;100.00
62725;BME280;49026;52.600;4.694;2024-01-30T07:16:50;102363.81;;;9.53;100.00
62725;BME280;49026;52.600;4.694;2024-01-30T07:19:15;102355.75;;;9.69;100.00
62725;BME280;49026;52.600;4.694;2024-01-30T07:21:41;102358.25;;;9.81;98.93
62725;BME280;49026;52.600;4.694;2024-01-30T07:24:06;102372.94;;;9.96;98.47
62725;BME280;49026;52.600;4.694;2024-01-30T07:26:31;102370.97;;;10.10;97.04
62725;BME280;49026;52.600;4.694;2024-01-30T07:28:57;102371.69;;;10.23;96.56
62725;BME280;49026;52.600;4.694;2024-01-30T07:31:25;102371.59;;;10.32;95.76
62725;BME280;49026;52.600;4.694;2024-01-30T07:33:50;102372.38;;;10.39;95.23
62725;BME280;49026;52.600;4.694;2024-01-30T07:36:15;102375.81;;;10.43;94.87
62725;BME280;49026;52.600;4.694;2024-01-30T07:38:40;102381.03;;;10.46;93.93
62725;BME280;49026;52.600;4.694;2024-01-30T07:41:06;102380.13;;;10.47;93.82
62725;BME280;49026;52.600;4.694;2024-01-30T07:43:31;102389.75;;;10.49;93.43
62725;BME280;49026;52.600;4.694;2024-01-30T07:45:59;102389.75;;;10.49;93.18
62725;BME280;49026;52.600;4.694;2024-01-30T07:48:26;102409.00;;;10.50;92.85
62725;BME280;49026;52.600;4.694;2024-01-30T07:50:51;102399.38;;;10.49;92.62
62725;BME280;49026;52.600;4.694;2024-01-30T07:53:16;102385.38;;;10.47;92.75
62725;BME280;49026;52.600;4.694;2024-01-30T07:55:44;102401.19;;;10.44;92.71
62725;BME280;49026;52.600;4.694;2024-01-30T07:58:12;102397.75;;;10.40;92.47
62725;BME280;49026;52.600;4.694;2024-01-30T08:00:40;102389.06;;;10.35;92.45
62725;BME280;49026;52.600;4.694;2024-01-30T08:03:07;102387.38;;;10.32;92.77
62725;BME280;49026;52.600;4.694;2024-01-30T08:05:35;102397.88;;;10.31;92.74
62725;BME280;49026;52.600;4.694;2024-01-30T08:08:00;102388.22;;;10.30;92.60
62725;BME280;49026;52.600;4.694;2024-01-30T08:10:26;102401.34;;;10.31;92.47
62725;BME280;49026;52.600;4.694;2024-01-30T08:12:51;102391.75;;;10.27;92.27
62725;BME280;49026;52.600;4.694;2024-01-30T08:15:16;102385.69;;;10.24;92.74
62725;BME280;49026;52.600;4.694;2024-01-30T08:17:42;102404.09;;;10.20;92.48
62725;BME280;49026;52.600;4.694;2024-01-30T08:20:07;102402.38;;;10.19;92.27
62725;BME280;49026;52.600;4.694;2024-01-30T08:22:38;102406.00;;;10.12;92.06
62725;BME280;49026;52.600;4.694;2024-01-30T08:25:07;102419.19;;;10.08;92.22
62725;BME280;49026;52.600;4.694;2024-01-30T08:27:33;102410.53;;;9.99;92.27
62725;BME280;49026;52.600;4.694;2024-01-30T08:30:00;102413.25;;;9.90;92.60
62725;BME280;49026;52.600;4.694;2024-01-30T08:32:25;102422.09;;;9.83;92.96
62725;BME280;49026;52.600;4.694;2024-01-30T08:34:51;102415.22;;;9.74;92.68
62725;BME280;49026;52.600;4.694;2024-01-30T08:37:16;102396.91;;;9.67;93.08
62725;BME280;49026;52.600;4.694;2024-01-30T08:39:46;102428.44;;;9.63;92.97
62725;BME280;49026;52.600;4.694;2024-01-30T08:42:13;102446.91;;;9.57;92.63
62725;BME280;49026;52.600;4.694;2024-01-30T08:44:39;102432.06;;;9.50;92.71
62725;BME280;49026;52.600;4.694;2024-01-30T08:47:04;102439.13;;;9.45;92.87
62725;BME280;49026;52.600;4.694;2024-01-30T08:49:29;102440.06;;;9.39;92.62
62725;BME280;49026;52.600;4.694;2024-01-30T08:51:55;102434.84;;;9.36;92.31
62725;BME280;49026;52.600;4.694;2024-01-30T08:54:20;102428.78;;;9.30;92.18
62725;BME280;49026;52.600;4.694;2024-01-30T08:56:45;102441.09;;;9.20;92.90
62725;BME280;49026;52.600;4.694;2024-01-30T08:59:11;102407.03;;;9.15;92.62
62725;BME280;49026;52.600;4.694;2024-01-30T09:01:36;102449.06;;;9.11;92.51
62725;BME280;49026;52.600;4.694;2024-01-30T09:04:01;102448.19;;;9.07;92.15
62725;BME280;49026;52.600;4.694;2024-01-30T09:06:27;102444.81;;;8.99;92.72
62725;BME280;49026;52.600;4.694;2024-01-30T09:08:55;102422.94;;;8.95;92.62
62725;BME280;49026;52.600;4.694;2024-01-30T09:11:23;102443.09;;;8.88;92.29
62725;BME280;49026;52.600;4.694;2024-01-30T09:13:48;102456.28;;;8.81;92.10
62725;BME280;49026;52.600;4.694;2024-01-30T09:16:13;102448.47;;;8.70;92.09
62725;BME280;49026;52.600;4.694;2024-01-30T09:18:43;102459.91;;;8.58;92.45
62725;BME280;49026;52.600;4.694;2024-01-30T09:21:10;102457.34;;;8.49;92.56
62725;BME280;49026;52.600;4.694;2024-01-30T09:23:36;102457.34;;;8.41;92.58
62725;BME280;49026;52.600;4.694;2024-01-30T09:26:03;102453.88;;;8.36;92.85
62725;BME280;49026;52.600;4.694;2024-01-30T09:28:29;102461.78;;;8.27;92.53
62725;BME280;49026;52.600;4.694;2024-01-30T09:30:54;102464.44;;;8.24;92.77
62725;BME280;49026;52.600;4.694;2024-01-30T09:33:19;102478.41;;;8.16;92.95
62725;BME280;49026;52.600;4.694;2024-01-30T09:35:47;102463.63;;;8.06;92.80
62725;BME280;49026;52.600;4.694;2024-01-30T09:38:15;102479.34;;;8.00;93.33
62725;BME280;49026;52.600;4.694;2024-01-30T09:40:40;102487.22;;;7.92;93.13
62725;BME280;49026;52.600;4.694;2024-01-30T09:43:13;102484.63;;;7.85;92.89
62725;BME280;49026;52.600;4.694;2024-01-30T09:45:44;102488.13;;;7.77;92.56
62725;BME280;49026;52.600;4.694;2024-01-30T09:48:11;102488.13;;;7.70;93.13
62725;BME280;49026;52.600;4.694;2024-01-30T09:50:36;102481.19;;;7.63;93.82
62725;BME280;49026;52.600;4.694;2024-01-30T09:53:03;102495.13;;;7.60;94.29
62725;BME280;49026;52.600;4.694;2024-01-30T09:55:29;102496.03;;;7.60;94.81
62725;BME280;49026;52.600;4.694;2024-01-30T09:57:54;102484.66;;;7.65;94.15
62725;BME280;49026;52.600;4.694;2024-01-30T10:00:20;102484.66;;;7.75;94.69
62725;BME280;49026;52.600;4.694;2024-01-30T10:02:45;102487.28;;;7.78;93.96
62725;BME280;49026;52.600;4.694;2024-01-30T10:05:15;102482.91;;;7.82;94.23
62725;BME280;49026;52.600;4.694;2024-01-30T10:07:53;102480.28;;;7.84;94.43
62725;BME280;49026;52.600;4.694;2024-01-30T10:10:21;102495.94;;;7.90;94.47
62725;BME280;49026;52.600;4.694;2024-01-30T10:12:50;102495.94;;;7.93;94.59
62725;BME280;49026;52.600;4.694;2024-01-30T10:15:17;102501.19;;;7.99;94.95
62725;BME280;49026;52.600;4.694;2024-01-30T10:17:44;102484.56;;;8.08;94.62
62725;BME280;49026;52.600;4.694;2024-01-30T10:20:10;102496.75;;;8.18;96.54
62725;BME280;49026;52.600;4.694;2024-01-30T10:22:38;102490.56;;;8.30;94.64
62725;BME280;49026;52.600;4.694;2024-01-30T10:25:05;102486.22;;;8.32;95.26
62725;BME280;49026;52.600;4.694;2024-01-30T10:27:33;102504.56;;;8.29;95.61
62725;BME280;49026;52.600;4.694;2024-01-30T10:29:58;102515.94;;;8.20;95.01
62725;BME280;49026;52.600;4.694;2024-01-30T10:32:27;102509.03;;;8.05;95.47
62725;BME280;49026;52.600;4.694;2024-01-30T10:34:52;102502.94;;;7.94;96.74
62725;BME280;49026;52.600;4.694;2024-01-30T10:37:21;102495.09;;;7.85;96.60
62725;BME280;49026;52.600;4.694;2024-01-30T10:39:53;102499.47;;;7.76;96.80
62725;BME280;49026;52.600;4.694;2024-01-30T10:42:18;102505.59;;;7.74;94.96
62725;BME280;49026;52.600;4.694;2024-01-30T10:45:10;102502.97;;;7.71;95.24
62725;BME280;49026;52.600;4.694;2024-01-30T10:47:43;102508.22;;;7.71;95.29
62725;BME280;49026;52.600;4.694;2024-01-30T10:50:09;102509.97;;;7.70;95.24
62725;BME280;49026;52.600;4.694;2024-01-30T10:52:36;102509.06;;;7.68;95.13
62725;BME280;49026;52.600;4.694;2024-01-30T10:55:03;102511.72;;;7.65;96.11
62725;BME280;49026;52.600;4.694;2024-01-30T10:57:34;102518.69;;;7.66;95.31
62725;BME280;49026;52.600;4.694;2024-01-30T11:00:03;102522.16;;;7.67;95.78
62725;BME280;49026;52.600;4.694;2024-01-30T11:02:33;102520.44;;;7.66;95.32
62725;BME280;49026;52.600;4.694;2024-01-30T11:04:59;102519.56;;;7.62;94.85
62725;BME280;49026;52.600;4.694;2024-01-30T11:07:30;102520.44;;;7.61;95.50
62725;BME280;49026;52.600;4.694;2024-01-30T11:12:27;102522.16;;;7.76;96.16
62725;BME280;49026;52.600;4.694;2024-01-30T11:15:09;102520.41;;;7.83;95.62
62725;BME280;49026;52.600;4.694;2024-01-30T11:17:53;102506.41;;;7.87;95.07
62725;BME280;49026;52.600;4.694;2024-01-30T11:20:26;102528.25;;;7.87;95.90
62725;BME280;49026;52.600;4.694;2024-01-30T11:22:53;102519.50;;;7.90;96.46
62725;BME280;49026;52.600;4.694;2024-01-30T11:25:23;102519.50;;;7.97;97.08
62725;BME280;49026;52.600;4.694;2024-01-30T11:27:51;102517.75;;;8.01;95.64
62725;BME280;49026;52.600;4.694;2024-01-30T11:30:32;102509.03;;;8.01;96.05
62725;BME280;49026;52.600;4.694;2024-01-30T11:33:05;102515.97;;;8.05;96.84
62725;BME280;49026;52.600;4.694;2024-01-30T11:35:32;102521.22;;;8.09;96.03
62725;BME280;49026;52.600;4.694;2024-01-30T11:37:59;102523.84;;;8.09;96.52
62725;BME280;49026;52.600;4.694;2024-01-30T11:40:27;102525.59;;;8.07;95.50
62725;BME280;49026;52.600;4.694;2024-01-30T11:42:54;102520.34;;;8.04;95.22
62725;BME280;49026;52.600;4.694;2024-01-30T11:45:20;102520.34;;;8.01;95.75
62725;BME280;49026;52.600;4.694;2024-01-30T11:47:45;102522.13;;;7.99;95.22
62725;BME280;49026;52.600;4.694;2024-01-30T11:50:13;102524.75;;;7.94;95.32
62725;BME280;49026;52.600;4.694;2024-01-30T11:52:39;102523.88;;;7.86;95.22
62725;BME280;49026;52.600;4.694;2024-01-30T11:55:05;102517.78;;;7.81;96.00
62725;BME280;49026;52.600;4.694;2024-01-30T11:57:32;102505.59;;;7.75;95.78
62725;BME280;49026;52.600;4.694;2024-01-30T11:59:59;102532.63;;;7.68;96.93
62725;BME280;49026;52.600;4.694;2024-01-30T12:02:25;102525.66;;;7.61;96.50
62725;BME280;49026;52.600;4.694;2024-01-30T12:04:50;102521.31;;;7.58;96.43
62725;BME280;49026;52.600;4.694;2024-01-30T12:07:15;102520.44;;;7.61;97.14
62725;BME280;49026;52.600;4.694;2024-01-30T12:09:42;102526.53;;;7.63;96.49
62725;BME280;49026;52.600;4.694;2024-01-30T12:12:07;102526.53;;;7.60;95.76
62725;BME280;49026;52.600;4.694;2024-01-30T12:14:38;102529.13;;;7.60;96.15
62725;BME280;49026;52.600;4.694;2024-01-30T12:17:04;102527.41;;;7.60;97.03
62725;BME280;49026;52.600;4.694;2024-01-30T12:19:29;102525.66;;;7.66;96.66
62725;BME280;49026;52.600;4.694;2024-01-30T12:21:56;102522.16;;;7.68;96.29
62725;BME280;49026;52.600;4.694;2024-01-30T12:24:24;102523.91;;;7.72;95.99
62725;BME280;49026;52.600;4.694;2024-01-30T12:26:50;102519.53;;;7.71;96.30
62725;BME280;49026;52.600;4.694;2024-01-30T12:29:15;102521.28;;;7.69;96.51
62725;BME280;49026;52.600;4.694;2024-01-30T12:31:42;102517.81;;;7.66;96.41
62725;BME280;49026;52.600;4.694;2024-01-30T12:34:07;102533.50;;;7.59;97.02
62725;BME280;49026;52.600;4.694;2024-01-30T12:36:33;102541.34;;;7.56;96.33
62725;BME280;49026;52.600;4.694;2024-01-30T12:39:01;102537.88;;;7.53;96.11
62725;BME280;49026;52.600;4.694;2024-01-30T12:41:27;102539.63;;;7.48;97.12
62725;BME280;49026;52.600;4.694;2024-01-30T12:43:57;102532.63;;;7.50;97.42
62725;BME280;49026;52.600;4.694;2024-01-30T12:46:29;102540.47;;;7.50;96.79
62725;BME280;49026;52.600;4.694;2024-01-30T12:48:54;102533.53;;;7.49;96.68
62725;BME280;49026;52.600;4.694;2024-01-30T12:51:20;102538.75;;;7.41;97.90